Tosno, Russia
Current Conditions -  °F | °C
As of 5:30 AM on Tuesday 23 Dec 2014 (Local Time) from ULLI Reporting Station
Light Snow Light Snow  
Wind Chill: 14°   Ceiling: 3200
Heat Index: 27°   Visibility: 3mi
Dew Point: 27°   Wind: 16mph
Humidity: 100%   Direction: 70°ENE
Pressure: 29.06"   Gusts: NA
Location:  59.55°N, 30.88°E
Report Text: ULLI 230230Z 07007MPS 5000 -SN DRSN SCT011 BKN032 OVC066M03/M03 Q0984 60590733 10////// TEMPO 0500 +SHSN BKN004
Loading
Personal Weather Stations






























Interactive Weather Map New forecast layout! Learn more

10-Day Weather Forecast

Advertisements
Track Severe Weather on mobile